NSZ5640 LEPA-ENEV
Flight info
| Callsign | NSZ5640 |
|---|---|
| Flight time | N/A |
| Altitude | 32000 |
| Route | MEROS DCT LAPIT DCT CHELY DCT LUMAS DCT MAXIR DCT LUSOL DCT BODRU DCT OKTET DCT IRMAR/N0457F340 DCT KINES DCT VANAS DCT ESOKO DCT GODRA/N0456F350 DCT LOKTA DCT TEDGO DCT HAREM DCT LOHRE DCT ELNAT DCT GITER DCT TEKVA/N0452F370 DCT PENNO |
| Aircraft | B38M/M-SDE1FGHILORVWXY/HB1 |
Departure
| Time | N/A |
|---|---|
| Airport | Palma de Mallorca Airport (LEPA) |
Arrival
| Time | 2026-05-01 14:57 |
|---|---|
| Airport | Harstad/Narvik Airport (ENEV) |
| Time | Latitude | Longitude | Altitude | Speed | Heading |
|---|---|---|---|---|---|
| 2026-05-01 14:22 | 65.13878 | 14.67795 | 32022 ft | 474 kts | 2° |
| 2026-05-01 14:23 | 65.20355 | 14.70744 | 32028 ft | 474 kts | 2° |
| 2026-05-01 14:23 | 65.26845 | 14.73713 | 32028 ft | 475 kts | 2° |
| 2026-05-01 14:24 | 65.33335 | 14.76698 | 32003 ft | 475 kts | 2° |
| 2026-05-01 14:24 | 65.39821 | 14.79872 | 31996 ft | 480 kts | 6° |
| 2026-05-01 14:25 | 65.46251 | 14.83874 | 32001 ft | 480 kts | 5° |
| 2026-05-01 14:25 | 65.52725 | 14.87803 | 32039 ft | 482 kts | 5° |
| 2026-05-01 14:26 | 65.62508 | 14.93756 | 31994 ft | 483 kts | 5° |
| 2026-05-01 14:27 | 65.69036 | 14.97756 | 31991 ft | 484 kts | 5° |
| 2026-05-01 14:27 | 65.75575 | 15.01781 | 31968 ft | 484 kts | 5° |
| 2026-05-01 14:28 | 65.85361 | 15.07846 | 32021 ft | 484 kts | 5° |
| 2026-05-01 14:28 | 65.91832 | 15.11885 | 31977 ft | 483 kts | 5° |
| 2026-05-01 14:29 | 65.98349 | 15.15970 | 31962 ft | 483 kts | 5° |
| 2026-05-01 14:30 | 66.10286 | 15.23512 | 31966 ft | 484 kts | 5° |
| 2026-05-01 14:31 | 66.20088 | 15.29758 | 31953 ft | 486 kts | 5° |
| 2026-05-01 14:31 | 66.26637 | 15.33961 | 31965 ft | 486 kts | 5° |
| 2026-05-01 14:32 | 66.33149 | 15.38162 | 31960 ft | 486 kts | 5° |
| 2026-05-01 14:32 | 66.39694 | 15.42407 | 31943 ft | 486 kts | 5° |
| 2026-05-01 14:33 | 66.46252 | 15.46683 | 32016 ft | 486 kts | 5° |
| 2026-05-01 14:33 | 66.52816 | 15.50987 | 31937 ft | 488 kts | 5° |
| 2026-05-01 14:34 | 66.59389 | 15.55321 | 31937 ft | 488 kts | 5° |
| 2026-05-01 14:34 | 66.65955 | 15.59673 | 31920 ft | 488 kts | 5° |
| 2026-05-01 14:35 | 66.72523 | 15.64051 | 31893 ft | 488 kts | 5° |
| 2026-05-01 14:35 | 66.79088 | 15.68452 | 31944 ft | 488 kts | 5° |
| 2026-05-01 14:36 | 66.85607 | 15.72845 | 31920 ft | 487 kts | 5° |
| 2026-05-01 14:36 | 66.92163 | 15.77287 | 31907 ft | 487 kts | 5° |
| 2026-05-01 14:37 | 66.98706 | 15.81748 | 31703 ft | 482 kts | 5° |
| 2026-05-01 14:37 | 67.01957 | 15.83968 | 30653 ft | 487 kts | 5° |
| 2026-05-01 14:37 | 67.05262 | 15.86236 | 29517 ft | 494 kts | 5° |
| 2026-05-01 14:37 | 67.08567 | 15.88515 | 28697 ft | 491 kts | 5° |
| 2026-05-01 14:38 | 67.11874 | 15.90796 | 27670 ft | 493 kts | 6° |
| 2026-05-01 14:38 | 67.15186 | 15.93089 | 26719 ft | 492 kts | 6° |
| 2026-05-01 14:38 | 67.18499 | 15.95388 | 25796 ft | 493 kts | 6° |
| 2026-05-01 14:38 | 67.21800 | 15.97687 | 25070 ft | 488 kts | 6° |
| 2026-05-01 14:39 | 67.25026 | 15.99938 | 24369 ft | 484 kts | 7° |
| 2026-05-01 14:39 | 67.28266 | 16.02207 | 23644 ft | 481 kts | 7° |
| 2026-05-01 14:39 | 67.31490 | 16.04468 | 22844 ft | 478 kts | 7° |
| 2026-05-01 14:39 | 67.34686 | 16.06718 | 22194 ft | 471 kts | 7° |
| 2026-05-01 14:40 | 67.37838 | 16.08942 | 21422 ft | 468 kts | 7° |
| 2026-05-01 14:40 | 67.40962 | 16.11153 | 20825 ft | 462 kts | 7° |
| 2026-05-01 14:40 | 67.44069 | 16.13357 | 19959 ft | 462 kts | 7° |
| 2026-05-01 14:40 | 67.47152 | 16.15552 | 19430 ft | 455 kts | 7° |
| 2026-05-01 14:41 | 67.50188 | 16.17717 | 18846 ft | 449 kts | 7° |
| 2026-05-01 14:41 | 67.53212 | 16.19881 | 18012 ft | 450 kts | 8° |
| 2026-05-01 14:41 | 67.56219 | 16.22035 | 17352 ft | 445 kts | 7° |
| 2026-05-01 14:41 | 67.59182 | 16.24167 | 16701 ft | 439 kts | 7° |
| 2026-05-01 14:42 | 67.62113 | 16.26279 | 16090 ft | 434 kts | 7° |
| 2026-05-01 14:42 | 67.65006 | 16.28362 | 15421 ft | 429 kts | 7° |
| 2026-05-01 14:42 | 67.67880 | 16.30437 | 14757 ft | 427 kts | 7° |
| 2026-05-01 14:42 | 67.70692 | 16.32494 | 14240 ft | 421 kts | 7° |
| 2026-05-01 14:43 | 67.73511 | 16.34550 | 13654 ft | 420 kts | 7° |
| 2026-05-01 14:43 | 67.76319 | 16.36600 | 13004 ft | 417 kts | 7° |
| 2026-05-01 14:43 | 67.79107 | 16.38641 | 12361 ft | 415 kts | 7° |
| 2026-05-01 14:43 | 67.81883 | 16.40677 | 11710 ft | 413 kts | 8° |
| 2026-05-01 14:44 | 67.84629 | 16.42693 | 10897 ft | 409 kts | 8° |
| 2026-05-01 14:44 | 67.90069 | 16.46724 | 9832 ft | 403 kts | 9° |
| 2026-05-01 14:44 | 67.92758 | 16.48716 | 9277 ft | 400 kts | 9° |
| 2026-05-01 14:45 | 67.95442 | 16.50506 | 8567 ft | 395 kts | 8° |
| 2026-05-01 14:45 | 68.00671 | 16.54387 | 7627 ft | 384 kts | 10° |
| 2026-05-01 14:45 | 68.03208 | 16.56299 | 7473 ft | 371 kts | 10° |
| 2026-05-01 14:46 | 68.05659 | 16.58155 | 7270 ft | 360 kts | 10° |
| 2026-05-01 14:46 | 68.10330 | 16.61681 | 6855 ft | 341 kts | 9° |
| 2026-05-01 14:46 | 68.12573 | 16.63388 | 6620 ft | 330 kts | 9° |
| 2026-05-01 14:47 | 68.14738 | 16.65024 | 6492 ft | 318 kts | 9° |
| 2026-05-01 14:47 | 68.16798 | 16.66537 | 6896 ft | 298 kts | 9° |
| 2026-05-01 14:47 | 68.18867 | 16.68337 | 5623 ft | 326 kts | 12° |
| 2026-05-01 14:48 | 68.23060 | 16.71448 | 5558 ft | 303 kts | 11° |
| 2026-05-01 14:48 | 68.25064 | 16.72951 | 5433 ft | 294 kts | 10° |
| 2026-05-01 14:48 | 68.28887 | 16.75871 | 5179 ft | 278 kts | 10° |
| 2026-05-01 14:49 | 68.32470 | 16.78635 | 5040 ft | 255 kts | 10° |
| 2026-05-01 14:49 | 68.35793 | 16.81205 | 5021 ft | 248 kts | 8° |
| 2026-05-01 14:50 | 68.38588 | 16.83372 | 4984 ft | 253 kts | 9° |
| 2026-05-01 14:50 | 68.42486 | 16.86932 | 4952 ft | 250 kts | 5° |
| 2026-05-01 14:51 | 68.44171 | 16.88033 | 4975 ft | 251 kts | 7° |
| 2026-05-01 14:51 | 68.47269 | 16.88839 | 4872 ft | 201 kts | 336° |
| 2026-05-01 14:52 | 68.49867 | 16.87041 | 4467 ft | 185 kts | 335° |
| 2026-05-01 14:52 | 68.51086 | 16.86164 | 4250 ft | 177 kts | 334° |
| 2026-05-01 14:52 | 68.53481 | 16.84392 | 3964 ft | 178 kts | 335° |
| 2026-05-01 14:53 | 68.54662 | 16.83506 | 3814 ft | 178 kts | 336° |
| 2026-05-01 14:53 | 68.55852 | 16.82563 | 3587 ft | 176 kts | 333° |
| 2026-05-01 14:53 | 68.56948 | 16.81220 | 3373 ft | 170 kts | 322° |
| 2026-05-01 14:53 | 68.57902 | 16.79403 | 3083 ft | 165 kts | 310° |
| 2026-05-01 14:54 | 68.58604 | 16.77085 | 2942 ft | 152 kts | 290° |
| 2026-05-01 14:54 | 68.58874 | 16.74401 | 2812 ft | 143 kts | 269° |
| 2026-05-01 14:54 | 68.58739 | 16.71764 | 2472 ft | 138 kts | 249° |
| 2026-05-01 14:54 | 68.58289 | 16.69539 | 2240 ft | 132 kts | 232° |
| 2026-05-01 14:55 | 68.57584 | 16.67886 | 1946 ft | 137 kts | 214° |
| 2026-05-01 14:55 | 68.56676 | 16.67090 | 1788 ft | 140 kts | 194° |
| 2026-05-01 14:55 | 68.55710 | 16.67076 | 1537 ft | 139 kts | 184° |
| 2026-05-01 14:55 | 68.54751 | 16.67210 | 1112 ft | 139 kts | 180° |
| 2026-05-01 14:56 | 68.53731 | 16.67327 | 833 ft | 145 kts | 185° |
| 2026-05-01 14:56 | 68.52741 | 16.67453 | 643 ft | 143 kts | 184° |
| 2026-05-01 14:56 | 68.51758 | 16.67538 | 431 ft | 138 kts | 185° |
| 2026-05-01 14:56 | 68.50793 | 16.67631 | 223 ft | 138 kts | 180° |
| 2026-05-01 14:57 | 68.49839 | 16.67731 | 94 ft | 128 kts | 178° |
| 2026-05-01 14:57 | 68.48925 | 16.67838 | 97 ft | 11 kts | 176° |
| 2026-05-01 14:57 | 68.48883 | 16.67954 | 95 ft | 11 kts | 84° |
| 2026-05-01 14:58 | 68.48888 | 16.68225 | 90 ft | 14 kts | 88° |
| 2026-05-01 14:58 | 68.48891 | 16.68399 | 93 ft | 8 kts | 88° |
| 2026-05-01 14:58 | 68.48893 | 16.68552 | 96 ft | 9 kts | 89° |
| 2026-05-01 14:58 | 68.48900 | 16.68714 | 95 ft | 5 kts | 41° |
| 2026-05-01 14:59 | 68.48948 | 16.68719 | 95 ft | 9 kts | 353° |
| 2026-05-01 14:59 | 68.48977 | 16.68715 | 96 ft | 2 kts | 358° |
| 2026-05-01 14:59 | 68.48980 | 16.68715 | 95 ft | 0 kts | 358° |